createdAt,value
2023-05-22T00:00:08.918Z,116943.30
2023-05-22T00:01:11.977Z,116943.30
2023-05-22T00:02:15.090Z,116943.30
2023-05-22T00:03:18.286Z,116943.30
2023-05-22T00:04:21.496Z,116943.30
2023-05-22T00:05:24.973Z,116943.30
2023-05-22T00:06:28.091Z,116943.30
2023-05-22T00:07:31.166Z,116943.30
2023-05-22T00:08:34.759Z,116943.30
2023-05-22T00:09:37.854Z,116943.30
2023-05-22T00:10:41.167Z,116943.30
2023-05-22T00:11:44.415Z,116943.30
2023-05-22T00:12:47.791Z,116943.30
2023-05-22T00:13:50.872Z,116943.30
2023-05-22T00:14:54.054Z,116943.30
2023-05-22T00:15:57.436Z,116943.30
2023-05-22T00:17:00.446Z,116943.30
2023-05-22T00:18:03.617Z,116943.30
2023-05-22T00:19:06.722Z,116943.30
2023-05-22T00:20:09.659Z,116943.30
2023-05-22T00:21:12.638Z,116943.30
2023-05-22T00:22:15.729Z,116943.30
2023-05-22T00:23:18.905Z,116943.30
2023-05-22T00:24:21.874Z,116943.30
2023-05-22T00:25:24.745Z,116943.30
2023-05-22T00:26:27.821Z,116942.28
2023-05-22T00:27:30.803Z,116942.28
2023-05-22T00:28:33.780Z,116681.65
2023-05-22T00:29:36.859Z,115899.87
2023-05-22T00:30:40.151Z,115899.87
2023-05-22T00:31:43.646Z,116290.75
2023-05-22T00:32:46.643Z,116290.75
2023-05-22T00:33:49.987Z,116160.45
2023-05-22T00:34:52.871Z,115378.78
2023-05-22T00:35:55.848Z,115899.87
2023-05-22T00:36:58.925Z,115639.32
2023-05-22T00:38:01.706Z,116160.45
2023-05-22T00:39:04.712Z,114857.75
2023-05-22T00:40:07.555Z,114727.50
2023-05-22T00:41:10.428Z,114988.00
2023-05-22T00:42:13.308Z,114206.55
2023-05-22T00:43:16.074Z,113295.05
2023-05-22T00:44:18.747Z,110041.36
2023-05-22T00:45:21.413Z,111342.52
2023-05-22T00:46:24.328Z,112383.76
2023-05-22T00:47:27.186Z,113555.46
2023-05-22T00:48:30.252Z,112253.59
2023-05-22T00:49:33.532Z,112123.42
2023-05-22T00:50:36.789Z,112774.28
2023-05-22T00:51:39.804Z,112774.28
2023-05-22T00:52:42.872Z,113164.86
2023-05-22T00:53:45.957Z,112123.42
2023-05-22T00:54:48.952Z,111472.66
2023-05-22T00:55:51.902Z,112383.76
2023-05-22T00:56:54.892Z,110301.56
2023-05-22T00:57:57.752Z,109260.86
2023-05-22T00:59:00.830Z,109390.93
2023-05-22T01:00:03.810Z,111082.26
2023-05-22T01:01:06.686Z,110822.01
2023-05-22T01:02:09.909Z,108610.55
2023-05-22T01:03:12.913Z,109130.78
2023-05-22T01:04:15.924Z,109521.00
2023-05-22T01:05:18.917Z,109390.93
2023-05-22T01:06:21.793Z,110041.36
2023-05-22T01:07:24.753Z,106140.34
2023-05-22T01:08:27.729Z,106920.25
2023-05-22T01:09:30.701Z,104840.84
2023-05-22T01:10:33.793Z,103801.54
2023-05-22T01:11:36.762Z,105620.50
2023-05-22T01:12:39.638Z,105620.50
2023-05-22T01:13:42.723Z,105100.71
2023-05-22T01:14:45.598Z,105100.71
2023-05-22T01:15:48.937Z,102243.08
2023-05-22T01:16:51.853Z,98479.27
2023-05-22T01:17:54.843Z,98998.21
2023-05-22T01:18:57.841Z,103281.98
2023-05-22T01:20:00.793Z,103152.11
2023-05-22T01:21:03.655Z,100166.06
2023-05-22T01:22:06.632Z,100815.02
2023-05-22T01:23:09.609Z,99906.52
2023-05-22T01:24:12.901Z,100036.29
2023-05-22T01:25:15.675Z,98090.11
2023-05-22T01:26:18.958Z,98868.47
2023-05-22T01:27:22.335Z,102243.08
2023-05-22T01:28:25.415Z,100555.42
2023-05-22T01:29:28.492Z,100166.06
2023-05-22T01:30:31.678Z,102632.64
2023-05-22T01:31:35.081Z,100815.02
2023-05-22T01:32:38.291Z,98219.83
2023-05-22T01:33:41.894Z,90870.09
2023-05-22T01:34:45.015Z,93941.41
2023-05-22T01:35:48.147Z,91868.65
2023-05-22T01:36:51.091Z,94589.36
2023-05-22T01:37:53.947Z,95626.30
2023-05-22T01:38:59.699Z,95626.30
2023-05-22T01:40:02.876Z,89020.34
2023-05-22T01:41:08.725Z,88786.78
2023-05-22T01:42:11.698Z,80474.37
2023-05-22T01:43:14.684Z,85803.24
2023-05-22T01:44:17.758Z,83355.00
2023-05-22T01:45:20.536Z,85782.03
2023-05-22T01:46:23.391Z,86018.45
2023-05-22T01:47:26.108Z,80821.47
2023-05-22T01:48:28.841Z,75448.81
2023-05-22T01:49:31.519Z,79221.42
2023-05-22T01:50:34.184Z,79013.65
2023-05-22T01:51:37.060Z,83471.12
2023-05-22T01:52:40.134Z,82232.38
2023-05-22T01:53:43.228Z,83454.96
2023-05-22T01:54:46.212Z,80613.61
2023-05-22T01:55:49.168Z,78962.20
2023-05-22T01:56:52.159Z,71245.86
2023-05-22T01:57:55.326Z,65722.19
2023-05-22T01:58:58.307Z,52875.70
2023-05-22T02:00:01.290Z,51675.48
2023-05-22T02:01:04.300Z,53850.78
2023-05-22T02:02:07.517Z,51200.70
2023-05-22T02:03:10.586Z,50742.00
2023-05-22T02:04:13.705Z,52655.27
2023-05-22T02:05:16.682Z,61040.45
2023-05-22T02:06:19.862Z,65466.86
2023-05-22T02:07:22.642Z,71625.39
2023-05-22T02:08:25.508Z,73011.91
2023-05-22T02:09:28.412Z,78004.16
2023-05-22T02:10:31.363Z,72740.01
2023-05-22T02:11:34.338Z,78019.29
2023-05-22T02:12:37.314Z,57069.32
2023-05-22T02:13:40.190Z,52390.76
2023-05-22T02:14:43.087Z,52228.46
2023-05-22T02:15:46.157Z,52256.51
2023-05-22T02:16:49.117Z,51298.86
2023-05-22T02:17:52.166Z,51443.09
2023-05-22T02:18:55.217Z,52219.44
2023-05-22T02:19:58.262Z,52394.77
2023-05-22T02:21:01.252Z,52823.60
2023-05-22T02:22:04.206Z,51188.68
2023-05-22T02:23:07.392Z,50752.01
2023-05-22T02:24:10.369Z,50506.66
2023-05-22T02:25:13.350Z,50861.18
2023-05-22T02:26:16.323Z,50864.18
2023-05-22T02:27:19.094Z,50837.14
2023-05-22T02:28:22.069Z,50744.00
2023-05-22T02:29:24.845Z,50795.08
2023-05-22T02:30:27.610Z,50830.13
2023-05-22T02:31:30.441Z,50853.16
2023-05-22T02:32:33.170Z,50499.65
2023-05-22T02:33:35.936Z,50660.88
2023-05-22T02:34:38.622Z,50940.29
2023-05-22T02:35:41.377Z,50870.19
2023-05-22T02:36:44.152Z,50732.98
2023-05-22T02:37:46.817Z,50442.57
2023-05-22T02:38:49.489Z,50479.62
2023-05-22T02:39:52.293Z,50357.45
2023-05-22T02:40:55.356Z,50416.54
2023-05-22T02:41:58.006Z,50223.27
2023-05-22T02:43:00.687Z,50311.39
2023-05-22T02:44:03.451Z,50678.91
2023-05-22T02:45:06.126Z,51075.50
2023-05-22T02:46:08.965Z,50813.11
2023-05-22T02:47:11.667Z,50249.30
2023-05-22T02:48:14.496Z,50316.40
2023-05-22T02:49:17.209Z,51304.86
2023-05-22T02:50:19.985Z,51252.78
2023-05-22T02:51:22.666Z,51288.84
2023-05-22T02:52:25.440Z,51319.89
2023-05-22T02:53:28.093Z,51223.73
2023-05-22T02:54:30.864Z,50984.36
2023-05-22T02:55:33.639Z,50941.30
2023-05-22T02:56:36.407Z,50708.95
2023-05-22T02:57:39.391Z,51200.70
2023-05-22T02:58:42.358Z,51151.62
2023-05-22T02:59:45.242Z,51273.81
2023-05-22T03:00:48.215Z,51172.65
2023-05-22T03:01:51.201Z,51147.61
2023-05-22T03:02:54.263Z,51106.55
2023-05-22T03:03:57.056Z,51086.52
2023-05-22T03:05:00.041Z,51069.49
2023-05-22T03:06:03.108Z,50763.03
2023-05-22T03:07:06.179Z,50630.84
2023-05-22T03:08:09.182Z,50356.45
2023-05-22T03:09:12.129Z,50028.02
2023-05-22T03:10:15.107Z,50068.07
2023-05-22T03:11:18.098Z,49914.87
2023-05-22T03:12:21.164Z,50089.10
2023-05-22T03:13:24.136Z,51326.90
2023-05-22T03:14:27.528Z,51095.53
2023-05-22T03:15:30.510Z,51216.72
2023-05-22T03:16:33.336Z,50885.21
2023-05-22T03:17:36.285Z,51062.48
2023-05-22T03:18:39.248Z,51189.68
2023-05-22T03:19:42.109Z,51194.69
2023-05-22T03:20:44.891Z,51135.60
2023-05-22T03:21:47.763Z,50923.27
2023-05-22T03:23:54.549Z,50285.36
2023-05-22T03:24:57.404Z,50840.14
2023-05-22T03:26:00.383Z,50562.74
2023-05-22T03:27:03.381Z,50687.92
2023-05-22T03:28:06.035Z,50946.30
2023-05-22T03:29:08.841Z,51050.46
2023-05-22T03:30:11.693Z,50944.30
2023-05-22T03:31:14.446Z,51068.49
2023-05-22T03:32:17.218Z,50540.71
2023-05-22T03:33:20.027Z,50369.47
2023-05-22T03:34:22.772Z,50210.25
2023-05-22T03:35:25.541Z,50133.15
2023-05-22T03:36:29.501Z,50202.24
2023-05-22T03:37:32.620Z,49755.68
2023-05-22T03:38:35.388Z,51263.80
2023-05-22T03:39:38.161Z,51225.74
2023-05-22T03:40:41.005Z,50129.15
2023-05-22T03:41:43.914Z,49817.75
2023-05-22T03:42:46.681Z,49604.49
2023-05-22T03:43:49.366Z,49264.11
2023-05-22T03:44:52.134Z,49098.93
2023-05-22T03:45:54.943Z,49158.99
2023-05-22T03:46:57.877Z,49387.25
2023-05-22T03:48:00.978Z,49336.19
2023-05-22T03:49:03.936Z,50084.09
2023-05-22T03:50:06.806Z,49592.48
2023-05-22T03:51:09.589Z,49954.92
2023-05-22T03:52:12.452Z,50318.40
2023-05-22T03:53:15.327Z,50465.60
2023-05-22T03:54:18.206Z,50497.65
2023-05-22T03:55:21.077Z,50906.24
2023-05-22T03:56:23.960Z,51906.88
2023-05-22T03:57:26.628Z,51715.55
2023-05-22T03:58:29.530Z,51045.45
2023-05-22T03:59:32.475Z,51068.49
2023-05-22T04:00:35.448Z,50876.20
2023-05-22T04:01:38.448Z,50900.23
2023-05-22T04:02:41.358Z,50722.97
2023-05-22T04:03:44.299Z,50803.09
2023-05-22T04:04:47.290Z,50512.67
2023-05-22T04:05:50.135Z,50575.76
2023-05-22T04:06:53.115Z,50881.21
2023-05-22T04:07:55.985Z,50918.26
2023-05-22T04:08:58.863Z,51009.40
2023-05-22T04:10:01.834Z,50931.28
2023-05-22T04:11:04.606Z,50849.16
2023-05-22T04:12:07.396Z,50866.18
2023-05-22T04:13:10.145Z,50870.19
2023-05-22T04:14:12.934Z,50733.99
2023-05-22T04:15:15.792Z,50729.98
2023-05-22T04:16:18.395Z,50890.22
2023-05-22T04:17:21.135Z,50988.37
2023-05-22T04:18:23.811Z,51467.13
2023-05-22T04:19:26.514Z,51849.78
2023-05-22T04:20:29.157Z,52193.39
2023-05-22T04:21:31.916Z,52153.32
2023-05-22T04:22:34.482Z,52110.24
2023-05-22T04:23:37.468Z,52083.19
2023-05-22T04:24:40.364Z,51903.87
2023-05-22T04:25:43.414Z,52044.12
2023-05-22T04:26:46.401Z,52116.25
2023-05-22T04:27:49.274Z,52242.48
2023-05-22T04:28:52.140Z,51993.03
2023-05-22T04:29:54.920Z,51849.78
2023-05-22T04:30:57.669Z,52249.50
2023-05-22T04:32:00.372Z,52199.40
2023-05-22T04:33:03.055Z,51983.01
2023-05-22T04:34:05.803Z,51713.54
2023-05-22T04:35:08.570Z,52053.14
2023-05-22T04:36:12.475Z,51736.58
2023-05-22T04:37:15.650Z,51893.86
2023-05-22T04:38:18.363Z,51294.85
2023-05-22T04:39:21.094Z,51116.57
2023-05-22T04:40:23.977Z,51557.28
2023-05-22T04:41:27.068Z,51580.32
2023-05-22T04:42:30.027Z,51627.39
2023-05-22T04:43:32.998Z,52091.21
2023-05-22T04:44:36.284Z,52186.38
2023-05-22T04:45:39.073Z,52146.30
2023-05-22T04:46:42.057Z,51459.11
2023-05-22T04:47:45.066Z,51508.20
2023-05-22T04:48:47.999Z,51545.26
2023-05-22T04:49:51.077Z,51485.16
2023-05-22T04:50:53.945Z,51879.83
2023-05-22T04:51:56.611Z,51802.70
2023-05-22T04:52:59.596Z,52073.17
2023-05-22T04:54:02.489Z,51783.66
2023-05-22T04:55:06.108Z,51793.68
2023-05-22T04:56:09.346Z,51929.92
2023-05-22T04:57:12.318Z,52315.62
2023-05-22T04:58:15.196Z,52372.73
2023-05-22T04:59:18.077Z,52325.64
2023-05-22T05:00:21.149Z,52546.05
2023-05-22T05:01:27.135Z,52652.26
2023-05-22T05:02:30.098Z,52529.02
2023-05-22T05:03:33.069Z,52375.73
2023-05-22T05:04:35.926Z,52220.44
2023-05-22T05:05:38.794Z,52384.75
2023-05-22T05:06:41.773Z,52852.66
2023-05-22T05:07:45.346Z,52578.12
2023-05-22T05:08:49.263Z,52326.64
2023-05-22T05:09:52.244Z,51923.91
2023-05-22T05:10:56.243Z,51733.57
2023-05-22T05:11:59.216Z,51447.09
2023-05-22T05:13:02.003Z,51593.34
2023-05-22T05:14:04.657Z,51787.67
2023-05-22T05:15:07.329Z,52051.14
2023-05-22T05:16:10.127Z,51607.36
2023-05-22T05:17:13.496Z,51265.80
2023-05-22T05:18:16.301Z,51350.94
2023-05-22T05:19:19.180Z,51884.84
2023-05-22T05:20:21.930Z,51443.09
2023-05-22T05:21:24.674Z,51455.11
2023-05-22T05:22:27.452Z,51475.14
2023-05-22T05:23:30.221Z,51681.49
2023-05-22T05:24:32.994Z,51652.44
2023-05-22T05:25:35.666Z,51480.15
2023-05-22T05:26:38.433Z,51616.38
2023-05-22T05:27:41.203Z,51559.28
2023-05-22T05:28:43.985Z,51399.02
2023-05-22T05:29:46.648Z,51730.57
2023-05-22T05:30:49.427Z,51577.31
2023-05-22T05:31:52.228Z,51411.04
2023-05-22T05:32:54.898Z,51547.26
2023-05-22T05:33:57.637Z,51444.09
2023-05-22T05:35:00.528Z,51106.55
2023-05-22T05:36:03.311Z,50720.97
2023-05-22T05:37:06.062Z,50897.23
2023-05-22T05:38:08.730Z,50881.21
2023-05-22T05:39:11.709Z,50854.16
2023-05-22T05:40:14.372Z,50978.35
2023-05-22T05:41:17.157Z,51152.62
2023-05-22T05:42:19.816Z,51357.95
2023-05-22T05:43:22.592Z,51826.74
2023-05-22T05:44:25.361Z,52720.39
2023-05-22T05:45:28.053Z,54302.82
2023-05-22T05:46:30.693Z,54821.08
2023-05-22T05:47:33.510Z,54354.94
2023-05-22T05:48:36.148Z,55164.95
2023-05-22T05:49:39.121Z,53455.91
2023-05-22T05:50:42.080Z,53925.95
2023-05-22T05:51:44.873Z,55858.80
2023-05-22T05:52:47.545Z,61070.58
2023-05-22T05:53:50.212Z,56290.02
2023-05-22T05:54:53.241Z,54399.05
2023-05-22T05:55:56.263Z,53574.16
2023-05-22T05:56:59.154Z,55939.02
2023-05-22T05:58:02.118Z,58717.71
2023-05-22T05:59:05.106Z,60909.93
2023-05-22T06:00:08.076Z,63230.94
2023-05-22T06:01:11.359Z,70586.56
2023-05-22T06:02:14.457Z,72244.59
2023-05-22T06:03:17.537Z,65845.84
2023-05-22T06:04:21.006Z,67761.37
2023-05-22T06:05:24.309Z,70884.49
2023-05-22T06:06:27.171Z,75306.73
2023-05-22T06:07:30.152Z,79020.70
2023-05-22T06:08:33.123Z,72309.03
2023-05-22T06:09:36.096Z,70826.12
2023-05-22T06:10:39.450Z,65119.08
2023-05-22T06:11:42.458Z,72289.89
2023-05-22T06:12:45.438Z,63276.15
2023-05-22T06:13:48.416Z,72257.67
2023-05-22T06:14:51.394Z,74622.58
2023-05-22T06:15:54.419Z,78838.16
2023-05-22T06:16:57.375Z,79362.64
2023-05-22T06:18:00.189Z,82846.15
2023-05-22T06:19:03.223Z,84390.07
2023-05-22T06:20:06.177Z,88298.47
2023-05-22T06:21:09.053Z,90675.88
2023-05-22T06:22:11.827Z,91998.16
2023-05-22T06:23:14.692Z,93682.25
2023-05-22T06:24:17.673Z,95237.42
2023-05-22T06:25:20.654Z,94718.97
2023-05-22T06:26:23.670Z,95626.30
2023-05-22T06:27:26.707Z,94589.36
2023-05-22T06:28:29.679Z,97960.41
2023-05-22T06:29:32.462Z,101334.25
2023-05-22T06:30:39.919Z,101464.08
2023-05-22T06:31:40.485Z,102243.08
2023-05-22T06:32:43.796Z,102762.50
2023-05-22T06:33:46.657Z,104840.84
2023-05-22T06:34:49.387Z,105490.55
2023-05-22T06:35:52.163Z,106270.32
2023-05-22T06:36:54.943Z,106660.27
2023-05-22T06:37:58.115Z,108220.42
2023-05-22T06:39:01.310Z,109130.78
2023-05-22T06:40:03.972Z,109911.27
2023-05-22T06:41:06.840Z,110822.01
2023-05-22T06:42:09.511Z,111342.52
2023-05-22T06:43:12.702Z,111993.27
2023-05-22T06:44:15.804Z,112774.28
2023-05-22T06:45:18.875Z,113295.05
2023-05-22T06:46:22.789Z,113815.89
2023-05-22T06:47:26.587Z,113946.10
2023-05-22T06:48:29.631Z,114336.78
2023-05-22T06:49:32.817Z,114597.26
2023-05-22T06:50:37.442Z,115509.05
2023-05-22T06:51:40.719Z,115769.59
2023-05-22T06:52:43.791Z,115899.87
2023-05-22T06:53:46.766Z,116160.45
2023-05-22T06:54:49.744Z,116290.75
2023-05-22T06:57:13.732Z,116551.34
2023-05-22T06:58:16.600Z,116942.28
2023-05-22T06:59:19.683Z,116942.28
2023-05-22T07:00:22.680Z,116943.30
2023-05-22T07:01:25.642Z,116943.30
2023-05-22T07:02:28.789Z,116943.30
2023-05-22T07:03:33.128Z,116943.30
2023-05-22T07:04:36.095Z,116943.30
2023-05-22T07:05:39.521Z,116943.30
2023-05-22T07:06:42.279Z,116943.30
2023-05-22T07:07:45.044Z,116943.30
2023-05-22T07:08:48.215Z,116943.30
2023-05-22T07:09:51.291Z,116943.30
2023-05-22T07:10:54.270Z,116943.30
2023-05-22T07:11:57.340Z,116943.30
2023-05-22T07:13:00.342Z,116943.30
2023-05-22T07:14:03.101Z,116943.30
2023-05-22T07:15:05.762Z,116943.30
2023-05-22T07:16:09.265Z,116943.30
2023-05-22T07:17:13.158Z,116943.30
2023-05-22T07:18:16.347Z,116943.30
2023-05-22T07:19:19.820Z,116943.30
2023-05-22T07:20:22.813Z,116943.30
2023-05-22T07:21:28.240Z,116943.30
2023-05-22T07:22:32.751Z,116943.30
2023-05-22T07:23:35.760Z,116943.30
2023-05-22T07:24:39.245Z,116943.30
2023-05-22T07:25:44.061Z,116943.30
2023-05-22T07:26:46.844Z,116943.30
2023-05-22T07:27:49.877Z,116943.30
2023-05-22T07:28:52.860Z,116943.30
2023-05-22T07:29:56.037Z,116943.30
2023-05-22T07:30:59.117Z,116943.30
2023-05-22T07:32:02.169Z,116943.30
2023-05-22T07:33:04.962Z,116943.30
2023-05-22T07:34:08.071Z,116943.30
2023-05-22T07:35:11.566Z,116943.30
2023-05-22T07:36:14.618Z,116943.30
2023-05-22T07:37:17.502Z,116943.30
2023-05-22T07:38:20.171Z,116943.30
2023-05-22T07:39:22.835Z,116943.30
2023-05-22T07:40:26.692Z,116943.30
2023-05-22T07:41:31.066Z,116943.30
2023-05-22T07:42:34.019Z,116943.30
2023-05-22T07:43:36.893Z,116943.30
2023-05-22T07:44:39.571Z,116943.30
2023-05-22T07:45:42.606Z,116943.30
2023-05-22T07:46:45.333Z,116943.30
2023-05-22T07:47:48.038Z,116943.30
2023-05-22T07:48:50.870Z,116943.30
2023-05-22T07:49:53.839Z,116943.30
2023-05-22T07:50:57.137Z,116943.30
2023-05-22T07:51:59.998Z,116943.30
2023-05-22T07:53:02.966Z,116943.30
2023-05-22T07:54:05.957Z,116943.30
2023-05-22T07:55:08.966Z,116943.30
2023-05-22T07:56:12.125Z,116943.30
2023-05-22T07:57:15.090Z,116943.30
2023-05-22T07:58:18.068Z,116943.30
2023-05-22T07:59:21.699Z,116943.30
2023-05-22T08:00:24.424Z,116943.30
2023-05-22T08:01:27.713Z,116943.30
2023-05-22T08:02:30.665Z,116943.30
2023-05-22T08:03:33.713Z,116943.30
2023-05-22T08:04:36.927Z,116943.30
2023-05-22T08:05:39.929Z,116943.30
2023-05-22T08:06:43.118Z,116943.30
2023-05-22T08:07:48.334Z,116943.30
2023-05-22T08:08:51.323Z,116943.30
2023-05-22T08:09:54.201Z,116943.30
2023-05-22T08:11:04.242Z,116943.30
2023-05-22T08:12:01.577Z,116943.30
2023-05-22T08:13:04.555Z,116943.30
2023-05-22T08:14:07.928Z,116943.30
2023-05-22T08:15:10.917Z,116943.30
2023-05-22T08:16:15.432Z,116943.30
2023-05-22T08:17:18.423Z,116943.30
2023-05-22T08:18:21.272Z,116943.30
2023-05-22T08:19:24.381Z,116943.30
2023-05-22T08:20:27.395Z,116943.30
2023-05-22T08:21:30.322Z,116943.30
2023-05-22T08:22:32.984Z,116943.30
2023-05-22T08:23:37.096Z,116943.30
2023-05-22T08:24:39.956Z,116943.30
2023-05-22T08:25:42.935Z,116943.30
2023-05-22T08:26:45.614Z,116943.30
2023-05-22T08:27:48.371Z,116943.30
2023-05-22T08:28:51.149Z,116943.30
2023-05-22T08:29:53.926Z,116943.30
2023-05-22T08:30:56.824Z,116943.30
2023-05-22T08:31:59.749Z,116943.30
2023-05-22T08:33:02.784Z,116943.30
2023-05-22T08:34:05.427Z,116943.30
2023-05-22T08:35:08.289Z,116943.30
2023-05-22T08:36:11.074Z,116943.30
2023-05-22T08:37:13.838Z,116943.30
2023-05-22T08:38:16.615Z,116943.30
2023-05-22T08:39:19.413Z,116943.30
2023-05-22T08:40:22.252Z,116943.30
2023-05-22T08:41:25.043Z,116943.30
2023-05-22T08:42:27.711Z,116943.30
2023-05-22T08:43:30.379Z,116943.30
2023-05-22T08:44:33.351Z,116943.30
2023-05-22T08:45:36.233Z,116943.30
2023-05-22T08:46:39.034Z,116943.30
2023-05-22T08:47:41.968Z,116943.30
2023-05-22T08:48:44.742Z,116943.30
2023-05-22T08:49:47.522Z,116943.30
2023-05-22T08:50:50.089Z,116943.30
2023-05-22T08:51:52.750Z,116943.30
2023-05-22T08:52:55.533Z,116943.30
2023-05-22T08:53:58.303Z,116943.30
2023-05-22T08:55:01.075Z,116943.30
2023-05-22T08:56:03.784Z,116943.30
2023-05-22T08:57:16.666Z,116943.30
2023-05-22T08:58:19.635Z,116943.30
2023-05-22T08:59:22.608Z,116943.30
2023-05-22T09:00:25.271Z,116943.30
2023-05-22T09:01:28.351Z,116943.30
2023-05-22T09:02:31.235Z,116943.30
2023-05-22T09:03:34.129Z,116943.30
2023-05-22T09:04:37.195Z,116943.30
2023-05-22T09:05:40.275Z,116943.30
2023-05-22T09:06:43.241Z,116943.30
2023-05-22T09:07:46.122Z,116943.30
2023-05-22T09:08:51.249Z,116943.30
2023-05-22T09:09:53.819Z,116943.30
2023-05-22T09:10:56.897Z,116943.30
2023-05-22T09:11:59.675Z,116943.30
2023-05-22T09:13:02.847Z,116943.30
2023-05-22T09:14:05.616Z,116943.30
2023-05-22T09:15:08.712Z,116943.30
2023-05-22T09:16:11.654Z,116943.30
2023-05-22T09:17:14.807Z,116943.30
2023-05-22T09:18:17.750Z,116943.30
2023-05-22T09:19:20.826Z,116943.30
2023-05-22T09:20:23.967Z,116943.30
2023-05-22T09:21:30.216Z,116943.30
2023-05-22T09:22:31.277Z,116943.30
2023-05-22T09:23:34.257Z,116943.30
2023-05-22T09:24:37.234Z,116943.30
2023-05-22T09:25:40.415Z,116943.30
2023-05-22T09:26:43.417Z,116943.30
2023-05-22T09:27:46.371Z,116943.30
2023-05-22T09:28:49.372Z,116943.30
2023-05-22T09:29:52.330Z,116943.30
2023-05-22T09:30:55.351Z,116943.30
2023-05-22T09:31:58.354Z,116943.30
2023-05-22T09:33:01.416Z,116943.30
2023-05-22T09:34:04.345Z,116943.30
2023-05-22T09:35:07.236Z,116943.30
2023-05-22T09:36:10.411Z,116943.30
2023-05-22T09:37:13.488Z,116943.30
2023-05-22T09:38:16.042Z,116943.30
2023-05-22T09:39:18.917Z,116943.30
2023-05-22T09:40:21.791Z,116943.30
2023-05-22T09:41:24.569Z,116943.30
2023-05-22T09:42:27.230Z,116943.30
2023-05-22T09:43:29.910Z,116943.30
2023-05-22T09:44:32.669Z,116943.30
2023-05-22T09:45:35.457Z,116943.30
2023-05-22T09:46:38.230Z,116943.30
2023-05-22T09:47:40.992Z,116943.30
2023-05-22T09:48:43.762Z,116943.30
2023-05-22T09:49:46.442Z,116943.30
2023-05-22T09:50:49.132Z,116943.30
2023-05-22T09:51:52.083Z,116943.30
2023-05-22T09:52:54.947Z,116943.30
2023-05-22T09:53:57.724Z,116943.30
2023-05-22T09:55:00.697Z,116943.30
2023-05-22T09:56:03.684Z,116943.30
2023-05-22T09:57:06.769Z,116943.30
2023-05-22T09:58:09.739Z,116943.30
2023-05-22T09:59:12.610Z,116943.30
2023-05-22T10:00:15.613Z,116943.30
2023-05-22T10:01:18.482Z,116943.30
2023-05-22T10:02:21.589Z,116943.30
2023-05-22T10:03:24.437Z,116943.30
2023-05-22T10:04:27.471Z,116943.30
2023-05-22T10:05:30.587Z,116943.30
2023-05-22T10:06:33.682Z,116943.30
2023-05-22T10:07:36.743Z,116943.30
2023-05-22T10:08:39.607Z,116943.30
2023-05-22T10:09:42.595Z,116943.30
2023-05-22T10:10:45.477Z,116943.30
2023-05-22T10:11:48.440Z,116943.30
2023-05-22T10:12:51.340Z,116943.30
2023-05-22T10:13:54.290Z,116943.30
2023-05-22T10:14:57.179Z,116943.30
2023-05-22T10:16:00.708Z,116943.30
2023-05-22T10:17:03.427Z,116943.30
2023-05-22T10:18:06.559Z,116943.30
2023-05-22T10:19:09.615Z,116943.30
2023-05-22T10:20:12.457Z,116943.30
2023-05-22T10:21:15.239Z,116943.30
2023-05-22T10:22:18.006Z,116943.30
2023-05-22T10:23:20.894Z,116943.30
2023-05-22T10:24:23.660Z,116943.30
2023-05-22T10:25:26.317Z,116943.30
2023-05-22T10:26:29.100Z,116943.30
2023-05-22T10:27:31.971Z,116943.30
2023-05-22T10:28:34.739Z,116943.30
2023-05-22T10:29:37.318Z,116943.30
2023-05-22T10:30:40.593Z,116943.30
2023-05-22T10:31:43.569Z,116943.30
2023-05-22T10:32:46.405Z,116943.30
2023-05-22T10:33:49.060Z,116943.30
2023-05-22T10:34:51.794Z,116943.30
2023-05-22T10:35:54.758Z,116943.30
2023-05-22T10:37:05.995Z,116943.30
2023-05-22T10:38:02.565Z,116943.30
2023-05-22T10:39:05.740Z,116943.30
2023-05-22T10:40:08.630Z,116943.30
2023-05-22T10:41:11.604Z,116943.30
2023-05-22T10:42:14.388Z,116943.30
2023-05-22T10:43:17.042Z,116943.30
2023-05-22T10:44:19.821Z,116943.30
2023-05-22T10:45:22.585Z,116943.30
2023-05-22T10:46:25.628Z,116943.30
2023-05-22T10:47:28.558Z,116943.30
2023-05-22T10:48:31.312Z,116943.30
2023-05-22T10:49:34.200Z,116943.30
2023-05-22T10:50:36.877Z,116943.30
2023-05-22T10:51:39.625Z,116943.30
2023-05-22T10:52:42.292Z,116943.30
2023-05-22T10:53:44.863Z,116943.30
2023-05-22T10:54:47.741Z,116943.30
2023-05-22T10:55:50.418Z,116943.30
2023-05-22T10:56:53.182Z,116943.30
2023-05-22T10:57:55.972Z,116943.30
2023-05-22T10:58:58.734Z,116943.30
2023-05-22T11:00:01.498Z,116943.30
2023-05-22T11:01:04.158Z,116943.30
2023-05-22T11:02:08.426Z,116943.30
2023-05-22T11:03:17.875Z,116943.30
2023-05-22T11:04:15.291Z,116943.30
2023-05-22T11:05:18.123Z,116943.30
2023-05-22T11:06:20.894Z,116943.30
2023-05-22T11:07:23.678Z,116943.30
2023-05-22T11:08:26.371Z,116943.30
2023-05-22T11:09:28.916Z,116943.30
2023-05-22T11:10:31.578Z,116943.30
2023-05-22T11:11:34.257Z,116943.30
2023-05-22T11:12:37.124Z,116943.30
2023-05-22T11:13:40.301Z,116943.30
2023-05-22T11:14:43.279Z,116943.30
2023-05-22T11:15:46.361Z,116943.30
2023-05-22T11:16:49.391Z,116943.30
2023-05-22T11:17:52.253Z,116943.30
2023-05-22T11:18:55.262Z,116943.30
2023-05-22T11:19:58.332Z,116943.30
2023-05-22T11:21:01.783Z,116943.30
2023-05-22T11:22:04.735Z,116943.30
2023-05-22T11:23:07.834Z,116943.30
2023-05-22T11:24:11.000Z,116943.30
2023-05-22T11:25:13.984Z,116943.30
2023-05-22T11:26:17.157Z,116943.30
2023-05-22T11:27:20.143Z,116943.30
2023-05-22T11:28:23.120Z,116943.30
2023-05-22T11:29:25.989Z,116943.30
2023-05-22T11:30:34.601Z,116943.30
2023-05-22T11:31:37.463Z,116943.30
2023-05-22T11:32:40.222Z,116943.30
2023-05-22T11:33:42.921Z,116943.30
2023-05-22T11:34:47.646Z,116943.30
2023-05-22T11:35:50.205Z,116943.30
2023-05-22T11:36:53.073Z,116943.30
2023-05-22T11:37:55.941Z,116943.30
2023-05-22T11:38:58.831Z,116943.30
2023-05-22T11:40:02.015Z,116943.30
2023-05-22T11:41:04.989Z,116943.30
2023-05-22T11:42:07.880Z,116943.30
2023-05-22T11:43:10.536Z,116943.30
2023-05-22T11:44:13.514Z,116943.30
2023-05-22T11:45:16.388Z,116943.30
2023-05-22T11:46:19.407Z,116943.30
2023-05-22T11:47:22.433Z,116943.30
2023-05-22T11:48:28.282Z,116943.30
2023-05-22T11:49:31.058Z,116943.30
2023-05-22T11:50:42.493Z,116943.30
2023-05-22T11:51:38.137Z,116943.30
2023-05-22T11:52:40.809Z,116943.30
2023-05-22T11:53:43.363Z,116943.30
2023-05-22T11:54:45.939Z,116943.30
2023-05-22T11:55:48.818Z,116943.30
2023-05-22T11:56:51.482Z,116943.30
2023-05-22T11:57:54.252Z,116943.30
2023-05-22T11:58:56.924Z,116943.30
2023-05-22T11:59:59.640Z,116943.30
2023-05-22T12:01:02.373Z,116943.30
2023-05-22T12:02:05.234Z,116943.30
2023-05-22T12:03:08.224Z,116943.30
2023-05-22T12:04:11.513Z,116943.30
2023-05-22T12:05:14.535Z,116943.30
2023-05-22T12:06:17.709Z,116943.30
2023-05-22T12:07:20.834Z,116943.30
2023-05-22T12:08:23.812Z,116943.30
2023-05-22T12:09:26.693Z,116943.30